Time;durP1;ratioP1;P1;durP2;ratioP2;P2;SDS_P1;SDS_P2;PMS_P1;PMS_P2;Temp;Humidity;BMP_temperature;BMP_pressure;BME280_temperature;BME280_humidity;BME280_pressure;Samples;Min_cycle;Max_cycle;Signal;HPM_P1;HPM_P2
2022/12/14 00:00:40;;;;;;;11.65;6.93;;;;;;;;;;4973792;28;20467;-57
2022/12/14 00:43:37;;;;;;;8.88;6.32;;;;;;;;;;4972924;28;20045;-57
2022/12/14 00:46:03;;;;;;;8.65;6.22;;;;;;;;;;4972149;28;20051;-57
2022/12/14 00:48:29;;;;;;;9.13;6.82;;;;;;;;;;4973531;28;20109;-57
2022/12/14 00:50:55;;;;;;;7.95;6.03;;;;;;;;;;4973089;28;20502;-58
2022/12/14 00:53:21;;;;;;;10.00;7.15;;;;;;;;;;4972912;28;20046;-57
2022/12/14 00:55:48;;;;;;;7.95;6.03;;;;;;;;;;4973770;28;20082;-57
2022/12/14 00:58:14;;;;;;;9.13;6.50;;;;;;;;;;4973276;28;20506;-58
2022/12/14 01:00:40;;;;;;;10.55;6.60;;;;;;;;;;4973165;28;20085;-57
2022/12/14 01:03:06;;;;;;;10.20;6.60;;;;;;;;;;4973530;28;20079;-57
2022/12/14 01:05:35;;;;;;;8.68;6.32;;;;;;;;;;4973148;28;20145;-58
2022/12/14 01:08:01;;;;;;;8.25;5.95;;;;;;;;;;4973146;28;20050;-57
2022/12/14 01:10:27;;;;;;;8.52;6.53;;;;;;;;;;4974767;28;20114;-57
2022/12/14 01:12:53;;;;;;;10.68;6.80;;;;;;;;;;4976992;28;20395;-57
2022/12/14 01:15:19;;;;;;;9.20;6.25;;;;;;;;;;4976652;28;20043;-57
2022/12/14 01:17:45;;;;;;;8.85;6.47;;;;;;;;;;4977557;28;20050;-57
2022/12/14 01:20:11;;;;;;;9.23;6.65;;;;;;;;;;4976489;28;20101;-58
2022/12/14 01:22:37;;;;;;;8.27;6.03;;;;;;;;;;4976909;28;20395;-57
2022/12/14 01:25:04;;;;;;;9.50;6.75;;;;;;;;;;4977136;28;20090;-57
2022/12/14 01:27:30;;;;;;;9.65;6.35;;;;;;;;;;4976744;28;20058;-57
2022/12/14 01:29:55;;;;;;;10.05;6.45;;;;;;;;;;4976624;28;20054;-57
2022/12/14 01:32:21;;;;;;;8.45;6.10;;;;;;;;;;4976642;28;20042;-57
2022/12/14 01:34:48;;;;;;;11.05;6.85;;;;;;;;;;4976954;28;20506;-57
2022/12/14 01:37:14;;;;;;;8.57;6.70;;;;;;;;;;4975774;28;20483;-57
2022/12/14 01:39:40;;;;;;;10.27;6.70;;;;;;;;;;4976640;28;20053;-58
2022/12/14 01:42:10;;;;;;;8.85;6.18;;;;;;;;;;4976547;28;20054;-58
2022/12/14 01:44:36;;;;;;;9.73;6.43;;;;;;;;;;4975528;28;20095;-57
2022/12/14 01:47:02;;;;;;;10.63;6.75;;;;;;;;;;4976145;28;20089;-57
2022/12/14 01:49:31;;;;;;;8.95;6.47;;;;;;;;;;4974719;28;20077;-57
2022/12/14 01:52:06;;;;;;;8.48;6.60;;;;;;;;;;4975656;28;20054;-58
2022/12/14 01:54:32;;;;;;;10.50;6.53;;;;;;;;;;4976386;28;20050;-58
2022/12/14 01:56:58;;;;;;;8.93;6.63;;;;;;;;;;4976069;28;20054;-57
2022/12/14 01:59:26;;;;;;;9.25;6.32;;;;;;;;;;4959058;28;20057;-58
2022/12/14 02:01:52;;;;;;;9.18;6.50;;;;;;;;;;4976329;28;20483;-58
2022/12/14 02:04:18;;;;;;;8.02;6.05;;;;;;;;;;4975426;28;20058;-58
2022/12/14 02:06:44;;;;;;;10.38;6.28;;;;;;;;;;4976636;28;20043;-57
2022/12/14 02:09:11;;;;;;;10.18;6.40;;;;;;;;;;4975664;28;20134;-57
2022/12/14 02:11:37;;;;;;;8.57;6.00;;;;;;;;;;4976064;28;20470;-57
2022/12/14 02:14:03;;;;;;;9.32;6.47;;;;;;;;;;4976116;28;20043;-58
2022/12/14 02:16:29;;;;;;;9.40;6.15;;;;;;;;;;4974650;28;20450;-58
2022/12/14 02:18:55;;;;;;;9.80;6.20;;;;;;;;;;4975876;28;20101;-57
2022/12/14 02:21:39;;;;;;;9.23;6.40;;;;;;;;;;4975646;28;20051;-57
2022/12/14 02:24:24;;;;;;;8.25;6.00;;;;;;;;;;4975863;28;20051;-58
2022/12/14 02:27:08;;;;;;;8.80;6.53;;;;;;;;;;4975905;28;20078;-58
2022/12/14 02:29:38;;;;;;;8.55;6.32;;;;;;;;;;4976114;28;20070;-57
2022/12/14 02:32:04;;;;;;;8.48;5.65;;;;;;;;;;4974139;28;20085;-58
2022/12/14 02:34:45;;;;;;;9.73;6.22;;;;;;;;;;4975598;28;20078;-57
2022/12/14 02:37:35;;;;;;;8.30;6.28;;;;;;;;;;4975222;28;20051;-57
2022/12/14 02:40:39;;;;;;;8.55;6.15;;;;;;;;;;4969879;28;20167;-57
2022/12/14 02:43:24;;;;;;;9.27;6.07;;;;;;;;;;4935022;29;20047;-57
2022/12/14 02:45:52;;;;;;;8.93;6.28;;;;;;;;;;4934393;29;20064;-57
2022/12/14 02:48:22;;;;;;;7.80;5.85;;;;;;;;;;4939937;29;20392;-57
2022/12/14 02:50:51;;;;;;;8.88;6.43;;;;;;;;;;4955082;29;20047;-57
2022/12/14 02:53:28;;;;;;;10.07;6.20;;;;;;;;;;4954267;29;20039;-57
2022/12/14 02:55:55;;;;;;;8.55;6.00;;;;;;;;;;4954926;29;20118;-57
2022/12/14 02:58:23;;;;;;;9.02;5.88;;;;;;;;;;4954775;29;20051;-57
2022/12/14 03:00:49;;;;;;;7.82;6.00;;;;;;;;;;4955580;28;20145;-57
2022/12/14 03:03:15;;;;;;;9.25;6.63;;;;;;;;;;4953845;29;20054;-57
2022/12/14 03:05:41;;;;;;;8.20;5.88;;;;;;;;;;4953449;29;20043;-57
2022/12/14 03:08:13;;;;;;;8.88;5.75;;;;;;;;;;4955551;28;20043;-58
2022/12/14 03:10:43;;;;;;;9.75;5.80;;;;;;;;;;4954989;29;20052;-58
2022/12/14 03:13:12;;;;;;;8.73;6.32;;;;;;;;;;4954423;29;20377;-57
2022/12/14 03:15:39;;;;;;;9.55;6.28;;;;;;;;;;4955271;28;20384;-57
2022/12/14 03:18:06;;;;;;;8.38;5.65;;;;;;;;;;4954425;29;20518;-57
2022/12/14 03:20:32;;;;;;;8.18;5.93;;;;;;;;;;4954067;29;20054;-57
2022/12/14 03:23:00;;;;;;;7.88;5.88;;;;;;;;;;4955517;28;20491;-58
2022/12/14 03:25:29;;;;;;;8.50;5.97;;;;;;;;;;4955313;28;20096;-57
2022/12/14 03:27:58;;;;;;;8.23;6.28;;;;;;;;;;4953901;29;20122;-57
2022/12/14 03:30:24;;;;;;;8.70;5.90;;;;;;;;;;4954142;29;20047;-57
2022/12/14 03:32:51;;;;;;;8.25;6.07;;;;;;;;;;4953513;28;20090;-57
2022/12/14 03:35:17;;;;;;;8.32;6.03;;;;;;;;;;4953573;29;20047;-57
2022/12/14 03:37:46;;;;;;;8.20;6.07;;;;;;;;;;4955411;28;20050;-57
2022/12/14 03:40:13;;;;;;;7.97;5.90;;;;;;;;;;4954742;28;20499;-57
2022/12/14 03:42:40;;;;;;;8.25;5.72;;;;;;;;;;4954931;28;20550;-57
2022/12/14 03:45:20;;;;;;;9.30;5.88;;;;;;;;;;4966280;28;20059;-57
2022/12/14 03:47:46;;;;;;;8.25;6.13;;;;;;;;;;4973091;28;20078;-57
2022/12/14 03:50:14;;;;;;;8.88;5.80;;;;;;;;;;4973634;28;20070;-57
2022/12/14 03:52:56;;;;;;;9.38;6.40;;;;;;;;;;4973360;28;20042;-57
2022/12/14 03:55:25;;;;;;;8.15;5.68;;;;;;;;;;4974208;28;20133;-57
2022/12/14 03:58:06;;;;;;;9.63;5.97;;;;;;;;;;4973734;28;20042;-58
2022/12/14 04:00:35;;;;;;;9.07;5.88;;;;;;;;;;4973515;28;20051;-57
2022/12/14 04:03:13;;;;;;;9.65;5.72;;;;;;;;;;4973913;28;20043;-58
2022/12/14 04:05:41;;;;;;;8.35;5.38;;;;;;;;;;4973272;28;20126;-58
2022/12/14 04:08:17;;;;;;;9.02;6.15;;;;;;;;;;4972923;28;20130;-57
2022/12/14 04:19:00;;;;;;;7.78;5.68;;;;;;;;;;4972599;28;20130;-57
2022/12/14 04:21:32;;;;;;;7.53;5.72;;;;;;;;;;4972211;28;20046;-57
2022/12/14 04:26:52;;;;;;;8.10;5.65;;;;;;;;;;4973157;28;20098;-58
2022/12/14 04:32:05;;;;;;;8.57;5.38;;;;;;;;;;4972446;28;20055;-57
2022/12/14 04:34:31;;;;;;;8.82;6.00;;;;;;;;;;4973828;28;20042;-57
2022/12/14 04:36:58;;;;;;;7.35;5.40;;;;;;;;;;4973561;28;20533;-57
2022/12/14 04:39:54;;;;;;;7.60;5.70;;;;;;;;;;4971807;28;20503;-57
2022/12/14 04:42:22;;;;;;;8.48;5.43;;;;;;;;;;4964771;28;20495;-57
2022/12/14 04:44:56;;;;;;;8.18;5.97;;;;;;;;;;4972099;28;20198;-57
2022/12/14 04:47:23;;;;;;;8.43;5.60;;;;;;;;;;4973400;28;20054;-57
2022/12/14 04:49:50;;;;;;;8.48;5.20;;;;;;;;;;4972546;28;20046;-57
2022/12/14 04:52:36;;;;;;;8.00;5.68;;;;;;;;;;4971742;28;20144;-57
2022/12/14 04:55:02;;;;;;;8.02;5.30;;;;;;;;;;4972750;28;20051;-57
2022/12/14 04:57:33;;;;;;;7.60;5.47;;;;;;;;;;4973377;28;20070;-57
2022/12/14 04:59:59;;;;;;;7.50;5.35;;;;;;;;;;4973033;28;20039;-57
2022/12/14 05:02:30;;;;;;;7.43;5.00;;;;;;;;;;4966658;28;20379;-57
2022/12/14 05:05:14;;;;;;;8.48;5.68;;;;;;;;;;4970627;28;20133;-57
2022/12/14 05:07:52;;;;;;;8.23;5.43;;;;;;;;;;4969764;28;20043;-58
2022/12/14 05:10:18;;;;;;;;;;;;;;;;;;4973275;28;20069;-57
2022/12/14 05:12:53;;;;;;;8.02;5.28;;;;;;;;;;4973729;28;20362;-57
2022/12/14 05:15:22;;;;;;;7.50;5.50;;;;;;;;;;4972462;28;20043;-58
2022/12/14 05:17:48;;;;;;;7.82;5.35;;;;;;;;;;4972263;28;20062;-58
2022/12/14 05:20:15;;;;;;;7.25;4.93;;;;;;;;;;4971384;28;20051;-58
2022/12/14 05:22:40;;;;;;;8.13;5.60;;;;;;;;;;4973535;28;20089;-58
2022/12/14 05:25:07;;;;;;;7.78;5.47;;;;;;;;;;4973045;28;20129;-58
2022/12/14 05:27:33;;;;;;;7.32;5.18;;;;;;;;;;4972573;28;20051;-58
2022/12/14 05:29:59;;;;;;;8.18;5.43;;;;;;;;;;4973360;28;20053;-58
2022/12/14 05:32:25;;;;;;;7.30;5.18;;;;;;;;;;4972709;28;20418;-58
2022/12/14 05:34:51;;;;;;;7.05;5.13;;;;;;;;;;4971836;28;20545;-58
2022/12/14 05:37:16;;;;;;;8.02;5.60;;;;;;;;;;4973152;28;20078;-58
2022/12/14 05:39:43;;;;;;;8.20;5.28;;;;;;;;;;4973094;28;20051;-57
2022/12/14 05:42:09;;;;;;;8.23;5.38;;;;;;;;;;4972699;28;20051;-58
2022/12/14 05:44:35;;;;;;;7.18;5.13;;;;;;;;;;4973047;28;20113;-58
2022/12/14 05:47:01;;;;;;;7.38;5.30;;;;;;;;;;4971363;28;20055;-58
2022/12/14 05:49:26;;;;;;;8.00;5.10;;;;;;;;;;4972558;28;20117;-58
2022/12/14 05:51:52;;;;;;;9.05;5.25;;;;;;;;;;4973332;28;20074;-57
2022/12/14 05:54:18;;;;;;;7.85;5.18;;;;;;;;;;4972541;28;20247;-57
2022/12/14 05:56:44;;;;;;;7.43;5.30;;;;;;;;;;4974279;28;20055;-57
2022/12/14 05:59:14;;;;;;;7.82;5.10;;;;;;;;;;4976252;28;20089;-57
2022/12/14 06:01:40;;;;;;;8.65;5.75;;;;;;;;;;4976696;28;20061;-57
2022/12/14 06:04:06;;;;;;;7.90;5.15;;;;;;;;;;4975969;28;20053;-57
2022/12/14 06:06:33;;;;;;;8.43;5.13;;;;;;;;;;4975794;28;20051;-57
2022/12/14 06:08:59;;;;;;;7.30;5.00;;;;;;;;;;4976452;28;20082;-58
2022/12/14 06:11:25;;;;;;;7.13;4.88;;;;;;;;;;4975561;28;20082;-58
2022/12/14 06:13:51;;;;;;;7.05;4.93;;;;;;;;;;4976164;28;20057;-58
2022/12/14 06:16:17;;;;;;;7.93;5.50;;;;;;;;;;4975563;28;20178;-58
2022/12/14 06:18:47;;;;;;;7.95;5.47;;;;;;;;;;4976471;28;20035;-58
2022/12/14 06:21:14;;;;;;;8.80;5.28;;;;;;;;;;4975321;28;20062;-58
2022/12/14 06:23:40;;;;;;;8.13;5.03;;;;;;;;;;4975585;28;20035;-58
2022/12/14 06:26:06;;;;;;;7.65;5.20;;;;;;;;;;4976025;28;20125;-59
2022/12/14 06:28:32;;;;;;;7.45;5.10;;;;;;;;;;4975694;28;20082;-59
2022/12/14 06:30:58;;;;;;;7.68;5.35;;;;;;;;;;4971823;28;20054;-60
2022/12/14 06:33:24;;;;;;;6.47;4.72;;;;;;;;;;4975720;28;20042;-60
2022/12/14 06:35:51;;;;;;;7.25;4.80;;;;;;;;;;4975883;28;20039;-59
2022/12/14 06:38:17;;;;;;;7.50;4.85;;;;;;;;;;4974808;28;20093;-59
2022/12/14 06:40:43;;;;;;;7.18;4.90;;;;;;;;;;4975846;28;20050;-59
2022/12/14 06:43:09;;;;;;;7.13;4.95;;;;;;;;;;4975486;28;20054;-60
2022/12/14 06:45:35;;;;;;;8.30;5.18;;;;;;;;;;4974944;28;20062;-57
2022/12/14 06:48:00;;;;;;;7.68;4.80;;;;;;;;;;4975642;28;20443;-57
2022/12/14 06:50:26;;;;;;;7.70;4.78;;;;;;;;;;4975128;28;20086;-58
2022/12/14 06:52:54;;;;;;;6.38;4.47;;;;;;;;;;4975217;28;20038;-58
2022/12/14 06:55:20;;;;;;;7.25;5.22;;;;;;;;;;4973702;28;20047;-58
2022/12/14 06:57:46;;;;;;;8.05;4.97;;;;;;;;;;4975418;28;20047;-57
2022/12/14 07:00:13;;;;;;;8.02;5.15;;;;;;;;;;4973326;28;20379;-57
2022/12/14 07:02:39;;;;;;;7.55;4.95;;;;;;;;;;4975326;28;20039;-57
2022/12/14 07:05:05;;;;;;;8.80;4.85;;;;;;;;;;4975374;28;20046;-57
2022/12/14 07:07:32;;;;;;;8.05;4.97;;;;;;;;;;4974604;28;20153;-57
2022/12/14 07:09:58;;;;;;;7.95;5.13;;;;;;;;;;4975203;28;20055;-57
2022/12/14 07:12:24;;;;;;;7.63;5.30;;;;;;;;;;4973634;28;20074;-57
2022/12/14 07:14:50;;;;;;;8.25;5.13;;;;;;;;;;4974945;28;20047;-57
2022/12/14 07:17:16;;;;;;;7.57;4.97;;;;;;;;;;4974519;28;20081;-58
2022/12/14 07:19:45;;;;;;;10.05;5.72;;;;;;;;;;4974816;28;20047;-58
2022/12/14 07:22:11;;;;;;;9.00;5.15;;;;;;;;;;4974782;28;20053;-58
2022/12/14 07:24:37;;;;;;;7.88;5.43;;;;;;;;;;4974924;28;20077;-58
2022/12/14 07:27:03;;;;;;;7.70;4.80;;;;;;;;;;4974464;28;20515;-58
2022/12/14 07:29:29;;;;;;;9.73;4.93;;;;;;;;;;4972747;28;20379;-58
2022/12/14 07:31:55;;;;;;;7.40;4.93;;;;;;;;;;4974549;28;20082;-58
2022/12/14 07:34:21;;;;;;;7.53;5.15;;;;;;;;;;4974028;28;20090;-58
2022/12/14 07:36:50;;;;;;;7.85;4.70;;;;;;;;;;4980797;28;20100;-57
2022/12/14 07:39:16;;;;;;;8.57;5.35;;;;;;;;;;4993364;28;20051;-58
2022/12/14 07:41:43;;;;;;;7.75;4.82;;;;;;;;;;4993643;28;20038;-58
2022/12/14 07:44:09;;;;;;;7.50;5.07;;;;;;;;;;4993334;28;20070;-58
2022/12/14 07:46:35;;;;;;;9.50;5.03;;;;;;;;;;4979139;28;20043;-59
2022/12/14 07:49:01;;;;;;;10.75;5.45;;;;;;;;;;4960618;28;20047;-58
2022/12/14 07:51:28;;;;;;;8.95;4.95;;;;;;;;;;4961957;28;20046;-58
2022/12/14 07:53:54;;;;;;;8.02;5.07;;;;;;;;;;4960770;28;20043;-58
2022/12/14 07:56:21;;;;;;;7.82;5.07;;;;;;;;;;4961810;28;20510;-59
2022/12/14 07:58:47;;;;;;;11.30;5.05;;;;;;;;;;4961861;28;20499;-59
2022/12/14 08:01:14;;;;;;;8.50;5.45;;;;;;;;;;4961679;28;20571;-59
2022/12/14 08:03:41;;;;;;;7.70;5.60;;;;;;;;;;4965380;28;20406;-60
2022/12/14 08:06:07;;;;;;;7.72;5.32;;;;;;;;;;4959380;28;20070;-59
2022/12/14 08:08:33;;;;;;;8.27;5.00;;;;;;;;;;4964835;28;20043;-58
2022/12/14 08:10:59;;;;;;;9.00;5.07;;;;;;;;;;4957826;28;20042;-58
2022/12/14 08:13:25;;;;;;;8.75;5.15;;;;;;;;;;4966496;28;20043;-58
2022/12/14 08:15:51;;;;;;;7.40;5.15;;;;;;;;;;4969207;28;20047;-58
2022/12/14 08:18:17;;;;;;;7.32;5.07;;;;;;;;;;4971331;28;20105;-58
2022/12/14 08:20:43;;;;;;;8.77;5.30;;;;;;;;;;4968723;28;20570;-58
2022/12/14 08:23:10;;;;;;;7.05;4.70;;;;;;;;;;4971309;28;20047;-59
2022/12/14 08:25:36;;;;;;;9.75;5.32;;;;;;;;;;4979458;28;20104;-59
2022/12/14 08:28:02;;;;;;;9.15;5.05;;;;;;;;;;4980476;28;20185;-58
2022/12/14 08:30:28;;;;;;;11.52;5.43;;;;;;;;;;4982083;28;20391;-58
2022/12/14 08:32:55;;;;;;;8.98;5.75;;;;;;;;;;4992895;28;20038;-57
2022/12/14 08:35:20;;;;;;;7.13;4.95;;;;;;;;;;4992995;28;20073;-58
2022/12/14 08:37:46;;;;;;;11.05;5.43;;;;;;;;;;4990222;28;20070;-59
2022/12/14 08:40:12;;;;;;;7.75;5.07;;;;;;;;;;4992718;28;20576;-57
2022/12/14 08:42:38;;;;;;;7.22;5.18;;;;;;;;;;4992842;28;20133;-58
2022/12/14 08:45:05;;;;;;;7.82;5.15;;;;;;;;;;4992548;28;20137;-58
2022/12/14 08:47:31;;;;;;;7.85;5.00;;;;;;;;;;4993007;28;20046;-58
2022/12/14 08:49:56;;;;;;;8.10;5.35;;;;;;;;;;4993166;28;20046;-58
2022/12/14 08:52:22;;;;;;;6.97;4.97;;;;;;;;;;4989363;28;20073;-57
2022/12/14 08:54:48;;;;;;;8.30;5.07;;;;;;;;;;4993024;28;20050;-58
2022/12/14 08:57:14;;;;;;;7.15;4.88;;;;;;;;;;4992800;28;20042;-59
2022/12/14 08:59:40;;;;;;;6.90;4.53;;;;;;;;;;4992842;28;20046;-58
2022/12/14 09:02:06;;;;;;;7.38;5.00;;;;;;;;;;4992444;28;20398;-58
2022/12/14 09:04:34;;;;;;;6.72;4.50;;;;;;;;;;4992654;28;20517;-58
2022/12/14 09:07:00;;;;;;;8.27;4.97;;;;;;;;;;4992700;28;20043;-58
2022/12/14 09:09:26;;;;;;;8.63;5.03;;;;;;;;;;4992565;28;20054;-58
2022/12/14 09:11:52;;;;;;;6.80;4.38;;;;;;;;;;4992805;28;20042;-62
2022/12/14 09:14:18;;;;;;;6.75;4.30;;;;;;;;;;4992229;28;20053;-58
2022/12/14 09:16:44;;;;;;;7.18;4.63;;;;;;;;;;4992763;28;20457;-58
2022/12/14 09:19:10;;;;;;;7.90;4.68;;;;;;;;;;4992059;28;20057;-58
2022/12/14 09:21:36;;;;;;;7.25;4.20;;;;;;;;;;4992963;28;20042;-58
2022/12/14 09:24:02;;;;;;;8.75;4.60;;;;;;;;;;4991629;28;20046;-57
2022/12/14 09:26:28;;;;;;;6.72;4.53;;;;;;;;;;4992329;28;20764;-58
2022/12/14 09:28:54;;;;;;;8.70;5.05;;;;;;;;;;4992798;28;20402;-57
2022/12/14 09:31:21;;;;;;;6.97;4.53;;;;;;;;;;4993082;28;20441;-58
2022/12/14 09:33:47;;;;;;;7.55;4.28;;;;;;;;;;4976256;28;20047;-58
2022/12/14 09:36:17;;;;;;;8.25;4.55;;;;;;;;;;4977023;28;20039;-58
2022/12/14 09:38:43;;;;;;;6.65;4.10;;;;;;;;;;4976584;28;20043;-58
2022/12/14 09:41:18;;;;;;;6.32;4.55;;;;;;;;;;4976259;28;20061;-58
2022/12/14 09:43:49;;;;;;;6.60;4.15;;;;;;;;;;4976569;28;20434;-58
2022/12/14 09:46:21;;;;;;;8.27;4.90;;;;;;;;;;4959204;28;20054;-58
2022/12/14 09:48:47;;;;;;;7.38;4.10;;;;;;;;;;4975329;28;20043;-58
2022/12/14 09:51:13;;;;;;;6.70;4.45;;;;;;;;;;4975232;28;20050;-58
2022/12/14 09:53:40;;;;;;;8.02;4.60;;;;;;;;;;4975755;28;20054;-58
2022/12/14 09:56:07;;;;;;;6.60;4.28;;;;;;;;;;4975065;28;20097;-58
2022/12/14 09:58:34;;;;;;;7.95;4.43;;;;;;;;;;4975293;28;20113;-58
2022/12/14 10:01:03;;;;;;;6.82;4.18;;;;;;;;;;4975238;28;20526;-59
2022/12/14 10:03:36;;;;;;;7.50;4.63;;;;;;;;;;4970790;28;20387;-58
2022/12/14 10:06:20;;;;;;;6.88;4.32;;;;;;;;;;4975450;28;20216;-59
2022/12/14 10:08:58;;;;;;;7.57;4.57;;;;;;;;;;4976239;28;20046;-58
2022/12/14 10:11:33;;;;;;;6.50;4.18;;;;;;;;;;4976192;28;20058;-58
2022/12/14 10:14:06;;;;;;;8.05;4.30;;;;;;;;;;4976430;28;20055;-58
2022/12/14 10:16:37;;;;;;;6.30;4.03;;;;;;;;;;4975668;28;20105;-58
2022/12/14 10:19:18;;;;;;;6.38;4.25;;;;;;;;;;4976272;28;20043;-58
2022/12/14 10:21:49;;;;;;;6.07;4.15;;;;;;;;;;4976363;28;20051;-58
2022/12/14 10:24:35;;;;;;;6.45;4.10;;;;;;;;;;4974263;28;20043;-58
2022/12/14 10:27:01;;;;;;;6.07;4.13;;;;;;;;;;4975915;28;20057;-58
2022/12/14 10:29:37;;;;;;;5.70;3.97;;;;;;;;;;4974239;28;20050;-59
2022/12/14 10:32:20;;;;;;;6.13;3.80;;;;;;;;;;4974775;28;20494;-59
2022/12/14 10:34:46;;;;;;;6.00;4.25;;;;;;;;;;4975867;28;20046;-59
2022/12/14 10:37:20;;;;;;;6.75;4.55;;;;;;;;;;4975296;28;20038;-58
2022/12/14 10:39:49;;;;;;;7.28;4.15;;;;;;;;;;4975088;28;20133;-59
2022/12/14 10:42:16;;;;;;;6.53;4.47;;;;;;;;;;4975158;28;20038;-58
2022/12/14 10:45:09;;;;;;;5.68;3.88;;;;;;;;;;4973927;28;20172;-58
2022/12/14 10:47:42;;;;;;;5.75;3.70;;;;;;;;;;4973628;28;20133;-58
2022/12/14 10:50:30;;;;;;;6.13;4.18;;;;;;;;;;4974426;28;20058;-58
2022/12/14 10:52:56;;;;;;;;;;;;;;;;;;4975620;28;20069;-58
2022/12/14 10:55:37;;;;;;;7.18;4.63;;;;;;;;;;4975366;28;20313;-59
2022/12/14 10:58:03;;;;;;;5.75;3.70;;;;;;;;;;4973682;28;20442;-58
2022/12/14 11:00:29;;;;;;;7.47;4.65;;;;;;;;;;4975507;28;20078;-58
2022/12/14 11:02:55;;;;;;;5.47;3.88;;;;;;;;;;4975257;28;20074;-58
2022/12/14 11:05:27;;;;;;;6.90;4.25;;;;;;;;;;4974760;28;20046;-58
2022/12/14 11:07:55;;;;;;;6.03;4.10;;;;;;;;;;4974331;28;20047;-58
2022/12/14 11:10:23;;;;;;;6.07;3.80;;;;;;;;;;4975257;28;20055;-58
2022/12/14 11:12:59;;;;;;;5.93;3.85;;;;;;;;;;4974806;28;20402;-58
2022/12/14 11:15:35;;;;;;;6.53;4.35;;;;;;;;;;4974814;28;20043;-58
2022/12/14 11:18:18;;;;;;;6.07;3.95;;;;;;;;;;4975336;28;20046;-58
2022/12/14 11:21:04;;;;;;;5.70;3.75;;;;;;;;;;4974871;28;20051;-58
2022/12/14 11:23:30;;;;;;;6.07;3.92;;;;;;;;;;4974698;28;20499;-58
2022/12/14 11:25:57;;;;;;;5.35;3.22;;;;;;;;;;4974518;28;20054;-58
2022/12/14 11:28:33;;;;;;;5.68;3.88;;;;;;;;;;4974761;28;20090;-58
2022/12/14 11:31:01;;;;;;;5.60;4.20;;;;;;;;;;4973697;28;20074;-58
2022/12/14 11:33:47;;;;;;;6.63;4.30;;;;;;;;;;4969566;28;20047;-58
2022/12/14 11:36:25;;;;;;;6.30;3.60;;;;;;;;;;4974384;28;20121;-58
2022/12/14 11:38:51;;;;;;;;;;;;;;;;;;4975208;28;20094;-58
2022/12/14 11:41:19;;;;;;;8.63;3.95;;;;;;;;;;4974186;28;20416;-58
2022/12/14 11:43:45;;;;;;;;;;;;;;;;;;4973536;28;20079;-58
2022/12/14 11:46:11;;;;;;;5.95;3.97;;;;;;;;;;4974398;28;19965;-59
2022/12/14 11:48:38;;;;;;;6.35;3.40;;;;;;;;;;4972780;28;20479;-59
2022/12/14 11:51:11;;;;;;;6.40;3.53;;;;;;;;;;4972984;28;20055;-59
2022/12/14 11:53:37;;;;;;;8.07;3.88;;;;;;;;;;4986121;28;20053;-58
2022/12/14 11:56:04;;;;;;;6.50;3.75;;;;;;;;;;4993236;28;20050;-58
2022/12/14 11:58:31;;;;;;;7.55;4.15;;;;;;;;;;4992664;28;20042;-59
2022/12/14 12:00:58;;;;;;;5.00;3.60;;;;;;;;;;4992140;28;20046;-58
2022/12/14 12:03:27;;;;;;;5.40;3.50;;;;;;;;;;4993741;28;20089;-58
2022/12/14 12:05:53;;;;;;;5.28;3.40;;;;;;;;;;4993244;28;20133;-59
2022/12/14 12:08:21;;;;;;;7.88;3.83;;;;;;;;;;4992107;28;20043;-59
2022/12/14 12:10:47;;;;;;;6.57;3.97;;;;;;;;;;4992754;28;20046;-59
2022/12/14 12:13:16;;;;;;;5.03;3.33;;;;;;;;;;4992165;28;20437;-59
2022/12/14 12:15:46;;;;;;;5.93;3.72;;;;;;;;;;4991958;28;20399;-59
2022/12/14 12:18:31;;;;;;;5.32;3.33;;;;;;;;;;4993257;28;20047;-59
2022/12/14 12:21:09;;;;;;;5.80;3.60;;;;;;;;;;4993693;28;20050;-60
2022/12/14 12:23:35;;;;;;;;;;;;;;;;;;4993382;28;20581;-59
2022/12/14 12:26:01;;;;;;;8.05;3.63;;;;;;;;;;4993356;28;20020;-60
2022/12/14 12:28:31;;;;;;;7.45;3.55;;;;;;;;;;4993382;28;20478;-59
2022/12/14 12:31:00;;;;;;;4.68;3.10;;;;;;;;;;4991871;28;20049;-59
2022/12/14 12:33:27;;;;;;;7.57;3.42;;;;;;;;;;4991622;28;20375;-59
2022/12/14 12:35:54;;;;;;;5.43;3.28;;;;;;;;;;4992046;28;20117;-59
2022/12/14 12:38:25;;;;;;;5.00;3.70;;;;;;;;;;4991300;28;20125;-59
2022/12/14 12:40:54;;;;;;;5.22;3.00;;;;;;;;;;4993220;28;20085;-60
2022/12/14 12:43:26;;;;;;;4.97;3.00;;;;;;;;;;4991394;28;20056;-59
2022/12/14 12:45:53;;;;;;;6.28;3.58;;;;;;;;;;4992972;28;20059;-59
2022/12/14 12:48:19;;;;;;;5.85;3.70;;;;;;;;;;4986313;28;20120;-59
2022/12/14 12:50:47;;;;;;;6.18;3.15;;;;;;;;;;4992285;28;20398;-58
2022/12/14 12:53:14;;;;;;;6.80;3.70;;;;;;;;;;4991231;28;20121;-58
2022/12/14 12:55:41;;;;;;;6.32;3.63;;;;;;;;;;4992890;28;20146;-59
2022/12/14 12:58:09;;;;;;;5.35;3.70;;;;;;;;;;4989334;28;20058;-58
2022/12/14 13:00:35;;;;;;;10.77;4.05;;;;;;;;;;4968977;28;20122;-58
2022/12/14 13:03:01;;;;;;;5.30;3.53;;;;;;;;;;4966961;28;20574;-58
2022/12/14 13:05:28;;;;;;;5.13;3.15;;;;;;;;;;4980987;28;20085;-59
2022/12/14 13:07:54;;;;;;;7.07;3.45;;;;;;;;;;4970520;28;20134;-59
2022/12/14 13:10:23;;;;;;;5.53;3.28;;;;;;;;;;4975352;28;20126;-59
2022/12/14 13:12:50;;;;;;;7.82;3.25;;;;;;;;;;4976677;28;20093;-59
2022/12/14 13:15:19;;;;;;;5.35;3.20;;;;;;;;;;4959321;28;20043;-60
2022/12/14 13:17:46;;;;;;;6.40;3.75;;;;;;;;;;4975755;28;20051;-59
2022/12/14 13:20:25;;;;;;;5.30;3.47;;;;;;;;;;4976809;28;20125;-59
2022/12/14 13:22:51;;;;;;;6.13;3.38;;;;;;;;;;4977106;28;20126;-59
2022/12/14 13:25:36;;;;;;;6.60;3.65;;;;;;;;;;4976297;28;20135;-59
2022/12/14 13:28:08;;;;;;;6.65;3.45;;;;;;;;;;4977438;28;20466;-59
2022/12/14 13:30:53;;;;;;;5.50;3.17;;;;;;;;;;4976208;28;20049;-59
2022/12/14 13:33:32;;;;;;;5.05;3.35;;;;;;;;;;4975116;28;20055;-59
2022/12/14 13:36:13;;;;;;;5.20;3.35;;;;;;;;;;4976833;28;20042;-59
2022/12/14 13:38:46;;;;;;;6.40;3.22;;;;;;;;;;4977225;28;20030;-59
2022/12/14 13:41:26;;;;;;;5.35;3.42;;;;;;;;;;4974629;28;20039;-59
2022/12/14 13:43:57;;;;;;;5.70;3.58;;;;;;;;;;4976650;28;20051;-59
2022/12/14 13:46:24;;;;;;;5.45;3.47;;;;;;;;;;4976253;28;20109;-58
2022/12/14 13:48:51;;;;;;;5.65;3.30;;;;;;;;;;4959299;28;20047;-58
2022/12/14 13:51:34;;;;;;;5.60;3.50;;;;;;;;;;4969489;28;20078;-58
2022/12/14 13:54:01;;;;;;;5.80;2.60;;;;;;;;;;4976089;28;20058;-57
2022/12/14 13:56:29;;;;;;;5.40;3.55;;;;;;;;;;4975794;28;20073;-59
2022/12/14 13:58:55;;;;;;;6.27;3.47;;;;;;;;;;4976768;28;20078;-58
2022/12/14 14:01:21;;;;;;;5.28;3.30;;;;;;;;;;4973383;28;20483;-57
2022/12/14 14:03:54;;;;;;;5.57;3.17;;;;;;;;;;4975877;28;20054;-58
2022/12/14 14:06:20;;;;;;;5.57;3.45;;;;;;;;;;4974991;28;20086;-58
2022/12/14 14:08:47;;;;;;;5.65;3.70;;;;;;;;;;4980819;28;20045;-56
2022/12/14 14:11:22;;;;;;;5.53;3.35;;;;;;;;;;4985668;28;20571;-57
2022/12/14 14:13:49;;;;;;;6.13;3.38;;;;;;;;;;4983359;28;20125;-57
2022/12/14 14:16:17;;;;;;;5.30;3.30;;;;;;;;;;4983974;28;20406;-57
2022/12/14 14:19:22;;;;;;;5.55;3.03;;;;;;;;;;4984592;28;20057;-57
2022/12/14 14:22:01;;;;;;;6.03;3.63;;;;;;;;;;4906847;29;20044;-57
2022/12/14 14:24:27;;;;;;;6.25;3.30;;;;;;;;;;4922987;29;20076;-57
2022/12/14 14:26:59;;;;;;;6.63;3.63;;;;;;;;;;4955511;28;20058;-58
2022/12/14 14:29:26;;;;;;;7.40;3.13;;;;;;;;;;4980909;28;20039;-57
2022/12/14 14:31:56;;;;;;;5.00;3.30;;;;;;;;;;4971914;28;20209;-58
2022/12/14 14:34:23;;;;;;;6.75;3.45;;;;;;;;;;4995421;28;20042;-58
2022/12/14 14:36:49;;;;;;;6.55;3.15;;;;;;;;;;4993740;28;20046;-59
2022/12/14 14:39:35;;;;;;;7.82;3.33;;;;;;;;;;4995166;28;20053;-58
2022/12/14 14:42:02;;;;;;;6.00;3.30;;;;;;;;;;4995030;28;20410;-58
2022/12/14 14:44:37;;;;;;;7.97;3.05;;;;;;;;;;4969592;28;20069;-58
2022/12/14 14:47:03;;;;;;;8.20;4.13;;;;;;;;;;4968655;28;20061;-58
2022/12/14 14:49:39;;;;;;;6.72;2.90;;;;;;;;;;4975192;28;20078;-58
2022/12/14 14:52:24;;;;;;;7.47;3.03;;;;;;;;;;4968980;28;20046;-58
2022/12/14 14:54:50;;;;;;;5.63;3.10;;;;;;;;;;4970860;28;20487;-57
2022/12/14 14:57:32;;;;;;;5.53;2.97;;;;;;;;;;4973140;28;20043;-58
2022/12/14 15:00:00;;;;;;;5.22;3.30;;;;;;;;;;4975362;28;20169;-58
2022/12/14 15:02:30;;;;;;;6.95;3.08;;;;;;;;;;4975355;28;20042;-58
2022/12/14 15:04:56;;;;;;;7.95;3.42;;;;;;;;;;4979032;28;20062;-58
2022/12/14 15:07:23;;;;;;;5.70;3.25;;;;;;;;;;4983523;28;20042;-58
2022/12/14 15:09:56;;;;;;;5.20;3.03;;;;;;;;;;4984477;28;20043;-58
2022/12/14 15:12:22;;;;;;;6.00;2.75;;;;;;;;;;4965519;28;20051;-58
2022/12/14 15:14:53;;;;;;;5.90;3.13;;;;;;;;;;4983647;28;20169;-58
2022/12/14 15:17:19;;;;;;;6.45;3.05;;;;;;;;;;4980663;28;20050;-58
2022/12/14 15:19:46;;;;;;;5.05;3.08;;;;;;;;;;4983764;28;20046;-59
2022/12/14 15:22:13;;;;;;;7.50;2.78;;;;;;;;;;4984987;28;20559;-58
2022/12/14 15:24:40;;;;;;;5.70;2.80;;;;;;;;;;4978092;28;20074;-59
2022/12/14 15:27:10;;;;;;;4.85;2.83;;;;;;;;;;4982372;28;20046;-58
2022/12/14 15:29:36;;;;;;;5.63;3.40;;;;;;;;;;4978794;28;20048;-58
2022/12/14 15:32:02;;;;;;;4.95;2.95;;;;;;;;;;4983304;28;20137;-57
2022/12/14 15:34:28;;;;;;;7.53;3.13;;;;;;;;;;4978182;28;20215;-59
2022/12/14 15:36:54;;;;;;;4.93;2.75;;;;;;;;;;4975164;28;20038;-58
2022/12/14 15:39:42;;;;;;;6.07;3.17;;;;;;;;;;4974068;28;20403;-58
2022/12/14 15:42:11;;;;;;;7.90;3.53;;;;;;;;;;4973474;28;20646;-58
2022/12/14 15:44:42;;;;;;;6.13;3.22;;;;;;;;;;4974366;28;20122;-57
2022/12/14 15:47:20;;;;;;;5.50;3.13;;;;;;;;;;4964133;28;20479;-58
2022/12/14 15:49:46;;;;;;;6.97;3.10;;;;;;;;;;4970365;28;20038;-57